Search for airport 
image banner adimage banner adimage banner ad
image banner ad

14CA - Hoag Memorial Hospital Presbyterian

Located in Newport Beach, United States

ICAO - 14CA, IATA -

Data provided by Airmate  

General information

Coordinates: N33°37'31" W117°55'51"
Elevation is 94 feet MSL.
Magnetic variation is 14° East
View others Airports in California

Operational data

Special qualification required
Current time UTC:
Current local time:
METAR: KSNA 240853Z AUTO 28004KT 10SM CLR 18/14 A2999 RMK AO2 SLP155 T01830144 58003
TAF: KSNA 240632Z 2407/2506 VRB04KT P6SM FEW011 FM241000 VRB04KT P6SM BKN012 FM241600 VRB05KT P6SM SCT014 FM242100 22009KT P6SM SCT100 FM250300 VRB04KT P6SM SCT014
View NOTAMs / SUP AIP / TFR affecting this airport [VIEW]
Communications frequencies: [VIEW]

Runways:

Airport contact information

Address: Newport Beach United States

Satellite view of 14CA